createdAt,value
2018-07-26T00:00:47.500Z,94.80
2018-07-26T00:03:15.860Z,94.60
2018-07-26T00:05:44.327Z,94.50
2018-07-26T00:08:12.703Z,94.30
2018-07-26T00:10:41.177Z,94.40
2018-07-26T00:13:10.055Z,94.50
2018-07-26T00:15:38.459Z,94.40
2018-07-26T00:18:06.847Z,94.30
2018-07-26T00:20:35.314Z,94.30
2018-07-26T00:23:03.702Z,94.50
2018-07-26T00:25:32.129Z,94.50
2018-07-26T00:28:00.549Z,94.60
2018-07-26T00:30:28.930Z,94.60
2018-07-26T00:32:57.336Z,94.70
2018-07-26T00:35:25.691Z,94.70
2018-07-26T00:37:54.069Z,94.90
2018-07-26T00:42:50.573Z,95.20
2018-07-26T00:45:19.032Z,95.20
2018-07-26T00:47:47.433Z,95.10
2018-07-26T00:50:15.931Z,95.10
2018-07-26T00:52:44.316Z,95.10
2018-07-26T00:55:12.721Z,95.10
2018-07-26T00:57:41.104Z,95.00
2018-07-26T01:00:09.507Z,95.10
2018-07-26T01:02:37.930Z,95.10
2018-07-26T01:05:06.689Z,95.40
2018-07-26T01:07:35.051Z,95.40
2018-07-26T01:10:03.982Z,95.30
2018-07-26T01:12:32.389Z,95.20
2018-07-26T01:17:28.886Z,95.10
2018-07-26T01:19:57.382Z,94.90
2018-07-26T01:22:25.818Z,94.90
2018-07-26T01:24:54.189Z,94.80
2018-07-26T01:27:22.551Z,95.20
2018-07-26T01:29:50.939Z,95.30
2018-07-26T01:34:47.490Z,95.30
2018-07-26T01:37:15.930Z,95.10
2018-07-26T01:39:44.286Z,95.40
2018-07-26T01:42:12.656Z,95.40
2018-07-26T01:44:41.046Z,95.70
2018-07-26T01:47:09.434Z,95.40
2018-07-26T01:49:37.801Z,95.30
2018-07-26T01:52:06.276Z,95.60
2018-07-26T01:54:34.656Z,95.50
2018-07-26T01:57:03.162Z,95.10
2018-07-26T01:59:31.545Z,95.10
2018-07-26T02:01:59.909Z,95.10
2018-07-26T02:04:28.320Z,95.00
2018-07-26T02:06:56.760Z,95.00
2018-07-26T02:09:25.157Z,95.00
2018-07-26T02:11:53.567Z,95.10
2018-07-26T02:14:27.330Z,95.20
2018-07-26T02:16:55.827Z,95.30
2018-07-26T02:19:24.196Z,95.20
2018-07-26T02:21:52.577Z,95.20
2018-07-26T02:24:21.029Z,95.10
2018-07-26T02:26:49.401Z,95.30
2018-07-26T02:29:17.769Z,95.50
2018-07-26T02:31:46.190Z,95.60
2018-07-26T02:34:14.564Z,95.30
2018-07-26T02:36:43.054Z,95.20
2018-07-26T02:39:11.444Z,95.30
2018-07-26T02:41:39.813Z,95.30
2018-07-26T02:44:08.174Z,95.30
2018-07-26T02:46:36.563Z,95.10
2018-07-26T02:49:05.020Z,95.10
2018-07-26T02:51:33.400Z,95.10
2018-07-26T02:54:01.814Z,95.10
2018-07-26T02:56:30.264Z,95.10
2018-07-26T02:58:58.655Z,95.10
2018-07-26T03:01:27.076Z,95.10
2018-07-26T03:03:55.458Z,95.00
2018-07-26T03:06:23.817Z,94.80
2018-07-26T03:08:52.194Z,94.90
2018-07-26T03:11:20.571Z,95.00
2018-07-26T03:13:49.033Z,95.00
2018-07-26T03:16:17.411Z,95.20
2018-07-26T03:18:45.810Z,95.00
2018-07-26T03:21:14.195Z,94.70
2018-07-26T03:23:42.583Z,94.70
2018-07-26T03:26:10.996Z,94.70
2018-07-26T03:28:39.345Z,94.80
2018-07-26T03:31:08.424Z,94.90
2018-07-26T03:33:37.010Z,94.70
2018-07-26T03:36:05.417Z,94.60
2018-07-26T03:38:33.769Z,94.80
2018-07-26T03:41:02.263Z,94.80
2018-07-26T03:43:30.706Z,94.70
2018-07-26T03:45:59.117Z,94.80
2018-07-26T03:48:27.591Z,94.90
2018-07-26T03:50:56.010Z,95.10
2018-07-26T03:53:24.405Z,95.10
2018-07-26T03:55:52.938Z,95.00
2018-07-26T03:58:21.393Z,94.90
2018-07-26T04:00:49.762Z,94.80
2018-07-26T04:03:18.182Z,94.40
2018-07-26T04:05:46.570Z,94.60
2018-07-26T04:08:15.038Z,94.80
2018-07-26T04:10:43.416Z,94.60
2018-07-26T04:13:11.886Z,94.30
2018-07-26T04:15:40.254Z,94.60
2018-07-26T04:18:08.653Z,94.40
2018-07-26T04:20:37.149Z,94.00
2018-07-26T04:23:05.568Z,93.70
2018-07-26T04:25:33.982Z,93.60
2018-07-26T04:28:02.824Z,93.50
2018-07-26T04:30:31.198Z,93.40
2018-07-26T04:32:59.598Z,93.30
2018-07-26T04:35:28.059Z,93.20
2018-07-26T04:37:56.438Z,93.10
2018-07-26T04:40:24.873Z,92.80
2018-07-26T04:42:53.317Z,92.40
2018-07-26T04:45:21.758Z,92.30
2018-07-26T04:47:50.240Z,92.30
2018-07-26T04:50:18.622Z,92.30
2018-07-26T04:52:47.064Z,91.90
2018-07-26T04:57:43.600Z,91.30
2018-07-26T05:02:40.065Z,91.10
2018-07-26T05:05:08.535Z,90.80
2018-07-26T05:07:36.969Z,90.60
2018-07-26T05:10:05.532Z,90.20
2018-07-26T05:12:34.158Z,90.20
2018-07-26T05:15:02.638Z,89.60
2018-07-26T05:17:31.021Z,89.30
2018-07-26T05:19:59.453Z,88.80
2018-07-26T05:22:27.812Z,88.50
2018-07-26T05:24:56.201Z,88.00
2018-07-26T05:27:24.614Z,87.40
2018-07-26T05:29:52.975Z,87.30
2018-07-26T05:32:21.352Z,87.10
2018-07-26T05:34:49.782Z,86.60
2018-07-26T05:37:18.166Z,86.40
2018-07-26T05:39:46.570Z,86.40
2018-07-26T05:42:15.125Z,85.60
2018-07-26T05:44:43.650Z,85.20
2018-07-26T05:47:12.190Z,84.80
2018-07-26T05:49:40.713Z,84.70
2018-07-26T05:52:09.208Z,84.40
2018-07-26T05:54:37.670Z,85.30
2018-07-26T05:57:06.827Z,83.70
2018-07-26T05:59:35.214Z,83.40
2018-07-26T06:02:03.764Z,82.70
2018-07-26T06:04:32.172Z,81.50
2018-07-26T06:07:00.533Z,82.00
2018-07-26T06:09:29.732Z,81.60
2018-07-26T06:11:58.413Z,80.80
2018-07-26T06:14:26.952Z,80.80
2018-07-26T06:16:55.350Z,80.30
2018-07-26T06:19:23.873Z,80.30
2018-07-26T06:21:52.295Z,79.90
2018-07-26T06:24:20.685Z,79.40
2018-07-26T06:26:49.245Z,78.70
2018-07-26T06:29:17.610Z,78.50
2018-07-26T06:31:46.026Z,79.00
2018-07-26T06:34:14.433Z,79.50
2018-07-26T06:36:42.873Z,79.60
2018-07-26T06:39:12.926Z,79.80
2018-07-26T06:41:41.778Z,79.20
2018-07-26T06:44:10.142Z,77.90
2018-07-26T06:46:38.510Z,78.70
2018-07-26T06:49:07.696Z,79.00
2018-07-26T06:51:36.675Z,79.00
2018-07-26T06:54:05.038Z,79.00
2018-07-26T06:56:33.571Z,78.50
2018-07-26T06:59:01.946Z,78.40
2018-07-26T07:01:30.342Z,78.90
2018-07-26T07:03:58.778Z,77.90
2018-07-26T07:06:27.154Z,77.60
2018-07-26T07:08:55.826Z,76.00
2018-07-26T07:11:24.253Z,76.30
2018-07-26T07:13:52.632Z,76.90
2018-07-26T07:16:20.998Z,75.00
2018-07-26T07:18:49.457Z,75.20
2018-07-26T07:21:18.145Z,75.20
2018-07-26T07:23:46.749Z,74.70
2018-07-26T07:26:15.226Z,72.80
2018-07-26T07:28:43.618Z,73.30
2018-07-26T07:31:12.060Z,72.90
2018-07-26T07:33:40.418Z,72.90
2018-07-26T07:36:08.867Z,72.80
2018-07-26T07:38:37.296Z,72.40
2018-07-26T07:41:05.684Z,73.00
2018-07-26T07:43:34.216Z,73.20
2018-07-26T07:46:02.621Z,71.50
2018-07-26T07:48:31.034Z,72.00
2018-07-26T07:50:59.400Z,72.40
2018-07-26T07:53:27.904Z,71.90
2018-07-26T07:55:56.316Z,71.90
2018-07-26T07:58:24.785Z,72.30
2018-07-26T08:00:53.158Z,72.40
2018-07-26T08:03:21.635Z,72.20
2018-07-26T08:05:50.001Z,72.10
2018-07-26T08:08:18.471Z,71.60
2018-07-26T08:10:46.858Z,71.10
2018-07-26T08:13:15.275Z,71.20
2018-07-26T08:15:43.633Z,70.90
2018-07-26T08:18:12.042Z,70.30
2018-07-26T08:20:40.401Z,70.60
2018-07-26T08:23:08.750Z,70.60
2018-07-26T08:25:37.138Z,69.80
2018-07-26T08:28:05.733Z,70.10
2018-07-26T08:30:34.102Z,70.10
2018-07-26T08:33:02.457Z,71.00
2018-07-26T08:35:30.834Z,71.10
2018-07-26T08:37:59.176Z,69.90
2018-07-26T08:40:27.590Z,69.00
2018-07-26T08:42:56.066Z,69.50
2018-07-26T08:45:24.475Z,68.60
2018-07-26T08:47:52.967Z,67.10
2018-07-26T08:50:21.430Z,66.00
2018-07-26T08:52:49.833Z,64.80
2018-07-26T08:55:18.234Z,64.10
2018-07-26T08:57:46.634Z,63.40
2018-07-26T09:00:17.654Z,63.70
2018-07-26T09:02:47.271Z,61.90
2018-07-26T09:05:16.097Z,61.70
2018-07-26T09:07:44.758Z,63.20
2018-07-26T09:10:13.410Z,61.40
2018-07-26T09:12:41.793Z,60.60
2018-07-26T09:15:10.250Z,61.40
2018-07-26T09:17:38.824Z,61.10
2018-07-26T09:20:07.228Z,59.70
2018-07-26T09:22:35.620Z,59.70
2018-07-26T09:25:04.059Z,60.00
2018-07-26T09:27:32.418Z,58.80
2018-07-26T09:30:00.914Z,59.20
2018-07-26T09:32:29.341Z,59.40
2018-07-26T09:34:57.763Z,58.60
2018-07-26T09:37:26.142Z,58.30
2018-07-26T09:39:54.500Z,58.00
2018-07-26T09:42:22.927Z,57.50
2018-07-26T09:44:51.301Z,57.00
2018-07-26T09:47:19.694Z,55.80
2018-07-26T09:49:48.110Z,55.20
2018-07-26T09:52:16.479Z,56.40
2018-07-26T09:54:44.869Z,57.60
2018-07-26T09:57:13.317Z,57.50
2018-07-26T09:59:41.668Z,57.50
2018-07-26T10:02:10.311Z,57.20
2018-07-26T10:04:38.753Z,56.80
2018-07-26T10:07:07.143Z,56.60
2018-07-26T10:09:35.489Z,56.30
2018-07-26T10:12:03.898Z,56.00
2018-07-26T10:14:32.270Z,55.90
2018-07-26T10:17:00.689Z,56.30
2018-07-26T10:19:29.092Z,56.50
2018-07-26T10:21:57.566Z,56.60
2018-07-26T10:24:25.989Z,56.10
2018-07-26T10:26:54.514Z,56.20
2018-07-26T10:29:22.926Z,55.70
2018-07-26T10:31:51.320Z,56.20
2018-07-26T10:34:19.761Z,56.20
2018-07-26T10:36:48.206Z,56.70
2018-07-26T10:39:16.634Z,56.40
2018-07-26T10:41:45.118Z,55.50
2018-07-26T10:44:13.510Z,55.30
2018-07-26T10:46:42.421Z,55.30
2018-07-26T10:49:10.830Z,56.40
2018-07-26T10:51:39.263Z,56.60
2018-07-26T10:54:07.766Z,57.10
2018-07-26T10:56:36.175Z,57.30
2018-07-26T10:59:04.605Z,57.10
2018-07-26T11:01:33.053Z,56.90
2018-07-26T11:04:01.406Z,56.60
2018-07-26T11:06:29.874Z,56.00
2018-07-26T11:08:58.260Z,56.70
2018-07-26T11:11:26.678Z,56.40
2018-07-26T11:13:55.058Z,56.50
2018-07-26T11:16:23.524Z,56.80
2018-07-26T11:18:51.862Z,56.90
2018-07-26T11:21:20.202Z,56.90
2018-07-26T11:23:48.660Z,56.60
2018-07-26T11:26:16.997Z,56.00
2018-07-26T11:28:45.500Z,55.70
2018-07-26T11:31:13.916Z,55.50
2018-07-26T11:33:42.315Z,53.90
2018-07-26T11:36:10.702Z,53.10
2018-07-26T11:38:39.089Z,53.20
2018-07-26T11:41:07.522Z,53.20
2018-07-26T11:43:37.062Z,54.10
2018-07-26T11:46:05.556Z,52.60
2018-07-26T11:48:33.961Z,51.60
2018-07-26T11:51:02.323Z,51.80
2018-07-26T11:53:30.795Z,51.90
2018-07-26T11:55:59.234Z,51.20
2018-07-26T11:58:27.662Z,48.10
2018-07-26T12:00:56.051Z,47.50
2018-07-26T12:03:24.398Z,48.00
2018-07-26T12:08:22.005Z,47.60
2018-07-26T12:10:50.348Z,47.50
2018-07-26T12:13:18.732Z,46.90
2018-07-26T12:15:47.170Z,46.60
2018-07-26T12:18:15.548Z,46.50
2018-07-26T12:20:43.954Z,47.70
2018-07-26T12:23:12.467Z,48.00
2018-07-26T12:25:40.821Z,49.20
2018-07-26T12:28:09.204Z,48.50
2018-07-26T12:30:37.605Z,47.80
2018-07-26T12:33:06.040Z,48.80
2018-07-26T12:35:34.482Z,49.40
2018-07-26T12:38:02.944Z,49.00
2018-07-26T12:40:31.327Z,49.20
2018-07-26T12:42:59.867Z,50.10
2018-07-26T12:45:28.284Z,51.40
2018-07-26T12:47:56.673Z,52.40
2018-07-26T12:50:25.013Z,52.80
2018-07-26T12:52:53.426Z,51.60
2018-07-26T12:55:21.803Z,52.20
2018-07-26T12:57:50.190Z,52.70
2018-07-26T13:00:18.581Z,54.50
2018-07-26T13:02:47.011Z,55.30
2018-07-26T13:05:15.365Z,56.30
2018-07-26T13:07:43.780Z,56.60
2018-07-26T13:10:12.210Z,55.90
2018-07-26T13:12:40.645Z,56.10
2018-07-26T13:15:09.098Z,55.50
2018-07-26T13:17:37.610Z,55.70
2018-07-26T13:20:07.250Z,55.10
2018-07-26T13:22:35.642Z,54.20
2018-07-26T13:25:04.176Z,52.70
2018-07-26T13:30:00.690Z,51.90
2018-07-26T13:32:29.068Z,51.60
2018-07-26T13:34:57.434Z,51.60
2018-07-26T13:37:25.853Z,51.80
2018-07-26T13:39:54.212Z,52.60
2018-07-26T13:42:22.705Z,53.80
2018-07-26T13:44:51.093Z,54.60
2018-07-26T13:47:19.482Z,54.90
2018-07-26T13:49:47.869Z,54.50
2018-07-26T13:52:16.274Z,55.00
2018-07-26T13:54:44.675Z,54.70
2018-07-26T13:57:13.077Z,54.40
2018-07-26T13:59:41.469Z,53.50
2018-07-26T14:02:09.905Z,52.40
2018-07-26T14:04:38.365Z,51.90
2018-07-26T14:07:06.741Z,50.60
2018-07-26T14:09:35.214Z,50.30
2018-07-26T14:12:03.646Z,50.90
2018-07-26T14:14:32.131Z,47.30
2018-07-26T14:17:00.486Z,47.40
2018-07-26T14:19:28.871Z,47.80
2018-07-26T14:21:57.265Z,48.50
2018-07-26T14:24:26.053Z,48.60
2018-07-26T14:26:54.511Z,48.50
2018-07-26T14:29:22.912Z,49.00
2018-07-26T14:31:51.287Z,49.00
2018-07-26T14:34:19.689Z,49.00
2018-07-26T14:36:48.121Z,48.50
2018-07-26T14:39:16.530Z,48.80
2018-07-26T14:41:44.957Z,48.30
2018-07-26T14:44:13.320Z,48.50
2018-07-26T14:46:41.827Z,47.80
2018-07-26T14:49:10.281Z,47.20
2018-07-26T14:51:38.628Z,46.70
2018-07-26T14:54:07.135Z,46.60
2018-07-26T14:56:35.511Z,46.70
2018-07-26T14:59:04.075Z,46.50
2018-07-26T15:01:32.514Z,46.20
2018-07-26T15:04:00.913Z,45.80
2018-07-26T15:06:29.325Z,45.20
2018-07-26T15:08:58.080Z,45.40
2018-07-26T15:11:26.461Z,45.40
2018-07-26T15:13:55.249Z,45.50
2018-07-26T15:16:24.286Z,45.20
2018-07-26T15:21:21.713Z,45.40
2018-07-26T15:23:50.865Z,44.30
2018-07-26T15:26:21.656Z,43.90
2018-07-26T15:28:50.529Z,44.40
2018-07-26T15:31:19.671Z,44.20
2018-07-26T15:33:48.810Z,44.10
2018-07-26T15:36:17.569Z,44.10
2018-07-26T15:38:46.251Z,44.40
2018-07-26T15:41:15.361Z,44.20
2018-07-26T15:43:44.758Z,43.70
2018-07-26T15:46:13.579Z,43.80
2018-07-26T15:48:42.555Z,43.50
2018-07-26T15:53:40.592Z,43.90
2018-07-26T15:56:08.991Z,43.70
2018-07-26T15:58:37.411Z,43.40
2018-07-26T16:01:05.914Z,42.70
2018-07-26T16:03:34.420Z,41.90
2018-07-26T16:06:02.785Z,41.60
2018-07-26T16:08:31.161Z,41.30
2018-07-26T16:10:59.543Z,41.70
2018-07-26T16:13:28.087Z,41.90
2018-07-26T16:15:56.470Z,42.10
2018-07-26T16:18:24.859Z,42.50
2018-07-26T16:20:53.304Z,43.10
2018-07-26T16:23:21.741Z,43.20
2018-07-26T16:25:50.226Z,43.00
2018-07-26T16:28:18.758Z,42.60
2018-07-26T16:30:47.157Z,42.40
2018-07-26T16:35:43.740Z,41.90
2018-07-26T16:38:12.140Z,42.10
2018-07-26T16:40:40.549Z,42.10
2018-07-26T16:43:08.979Z,42.40
2018-07-26T16:45:37.536Z,42.30
2018-07-26T16:48:06.035Z,42.50
2018-07-26T16:53:02.764Z,42.00
2018-07-26T16:55:31.240Z,42.00
2018-07-26T16:58:00.000Z,42.00
2018-07-26T17:00:28.479Z,42.20
2018-07-26T17:02:56.901Z,42.00
2018-07-26T17:05:25.580Z,42.00
2018-07-26T17:07:54.436Z,42.30
2018-07-26T17:10:23.099Z,43.00
2018-07-26T17:12:51.648Z,43.70
2018-07-26T17:15:20.115Z,44.40
2018-07-26T17:17:48.566Z,44.60
2018-07-26T17:20:17.191Z,44.70
2018-07-26T17:22:45.767Z,45.00
2018-07-26T17:25:14.333Z,45.40
2018-07-26T17:27:42.863Z,44.70
2018-07-26T17:30:11.392Z,45.10
2018-07-26T17:32:39.870Z,45.10
2018-07-26T17:35:08.327Z,45.30
2018-07-26T17:37:36.853Z,45.50
2018-07-26T17:40:05.939Z,45.80
2018-07-26T17:42:37.226Z,45.70
2018-07-26T17:45:09.738Z,46.20
2018-07-26T17:47:38.973Z,46.30
2018-07-26T17:50:08.886Z,46.00
2018-07-26T17:52:37.354Z,46.00
2018-07-26T17:55:05.951Z,46.10
2018-07-26T17:57:34.381Z,46.50
2018-07-26T18:00:02.842Z,47.30
2018-07-26T18:02:31.316Z,47.30
2018-07-26T18:04:59.724Z,47.90
2018-07-26T18:07:28.146Z,48.40
2018-07-26T18:09:56.529Z,48.20
2018-07-26T18:12:24.895Z,49.80
2018-07-26T18:14:53.313Z,49.60
2018-07-26T18:17:21.722Z,49.80
2018-07-26T18:19:50.130Z,50.80
2018-07-26T18:22:18.738Z,49.30
2018-07-26T18:24:47.143Z,49.40
2018-07-26T18:27:15.521Z,48.90
2018-07-26T18:29:44.092Z,48.70
2018-07-26T18:32:13.501Z,48.20
2018-07-26T18:34:41.942Z,48.10
2018-07-26T18:37:11.674Z,48.10
2018-07-26T18:39:42.001Z,48.00
2018-07-26T18:42:11.930Z,48.10
2018-07-26T18:44:42.495Z,48.00
2018-07-26T18:47:11.966Z,48.10
2018-07-26T18:49:42.038Z,48.10
2018-07-26T18:52:12.744Z,48.30
2018-07-26T18:54:43.540Z,49.10
2018-07-26T18:57:14.373Z,48.70
2018-07-26T18:59:46.289Z,48.70
2018-07-26T19:02:21.302Z,48.90
2018-07-26T19:04:50.664Z,49.10
2018-07-26T19:07:20.883Z,49.20
2018-07-26T19:09:55.509Z,49.50
2018-07-26T19:12:25.563Z,49.60
2018-07-26T19:14:59.785Z,49.50
2018-07-26T19:17:33.708Z,49.60
2018-07-26T19:20:09.124Z,49.90
2018-07-26T19:22:42.948Z,50.50
2018-07-26T19:25:12.992Z,50.70
2018-07-26T19:27:45.357Z,51.40
2018-07-26T19:30:15.656Z,51.20
2018-07-26T19:32:46.241Z,52.10
2018-07-26T19:35:17.324Z,52.90
2018-07-26T19:37:47.315Z,52.40
2018-07-26T19:40:16.998Z,52.50
2018-07-26T19:42:47.365Z,52.80
2018-07-26T19:45:17.382Z,53.00
2018-07-26T19:47:47.551Z,54.30
2018-07-26T19:50:16.998Z,54.00
2018-07-26T19:52:47.378Z,53.90
2018-07-26T19:55:16.970Z,54.10
2018-07-26T19:57:46.430Z,54.20
2018-07-26T20:00:18.600Z,54.50
2018-07-26T20:02:48.072Z,54.80
2018-07-26T20:05:16.909Z,54.70
2018-07-26T20:07:45.788Z,55.20
2018-07-26T20:10:16.055Z,55.40
2018-07-26T20:12:45.842Z,55.30
2018-07-26T20:15:15.314Z,55.60
2018-07-26T20:17:44.465Z,56.70
2018-07-26T20:20:14.001Z,56.80
2018-07-26T20:22:43.225Z,57.00
2018-07-26T20:25:12.594Z,57.10
2018-07-26T20:27:41.890Z,57.40
2018-07-26T20:30:12.101Z,57.70
2018-07-26T20:32:41.502Z,57.80
2018-07-26T20:35:11.091Z,58.30
2018-07-26T20:37:40.561Z,58.30
2018-07-26T20:40:11.292Z,58.50
2018-07-26T20:42:41.189Z,58.60
2018-07-26T20:45:12.273Z,58.80
2018-07-26T20:47:41.789Z,58.90
2018-07-26T20:50:11.114Z,59.20
2018-07-26T20:52:40.322Z,59.50
2018-07-26T20:55:10.018Z,59.60
2018-07-26T20:57:39.650Z,60.10
2018-07-26T21:00:10.838Z,60.20
2018-07-26T21:02:40.370Z,60.30
2018-07-26T21:05:10.042Z,61.40
2018-07-26T21:07:39.356Z,60.80
2018-07-26T21:10:09.425Z,61.60
2018-07-26T21:12:37.889Z,61.60
2018-07-26T21:15:07.540Z,61.50
2018-07-26T21:17:36.169Z,63.10
2018-07-26T21:20:05.049Z,62.40
2018-07-26T21:22:33.457Z,63.00
2018-07-26T21:25:01.873Z,63.50
2018-07-26T21:27:30.266Z,63.20
2018-07-26T21:29:58.658Z,63.30
2018-07-26T21:32:27.301Z,63.00
2018-07-26T21:34:55.676Z,63.20
2018-07-26T21:37:24.057Z,63.40
2018-07-26T21:39:52.484Z,63.60
2018-07-26T21:42:20.861Z,64.20
2018-07-26T21:44:49.216Z,64.30
2018-07-26T21:47:17.671Z,64.30
2018-07-26T21:49:46.051Z,64.00
2018-07-26T21:52:14.522Z,64.10
2018-07-26T21:54:43.056Z,64.20
2018-07-26T21:57:11.469Z,64.20
2018-07-26T21:59:39.957Z,64.10
2018-07-26T22:04:36.633Z,65.00
2018-07-26T22:07:05.151Z,65.20
2018-07-26T22:09:33.627Z,66.20
2018-07-26T22:12:02.181Z,66.00
2018-07-26T22:14:30.536Z,66.50
2018-07-26T22:19:27.050Z,67.10
2018-07-26T22:21:55.455Z,66.90
2018-07-26T22:24:23.922Z,67.50
2018-07-26T22:26:52.303Z,67.50
2018-07-26T22:29:20.796Z,67.50
2018-07-26T22:31:49.197Z,67.50
2018-07-26T22:34:17.578Z,67.70
2018-07-26T22:36:46.006Z,67.70
2018-07-26T22:39:14.373Z,67.70
2018-07-26T22:41:42.988Z,67.50
2018-07-26T22:44:11.390Z,68.30
2018-07-26T22:46:39.813Z,69.00
2018-07-26T22:49:08.214Z,69.30
2018-07-26T22:51:36.650Z,69.60
2018-07-26T22:54:05.262Z,69.50
2018-07-26T22:56:33.897Z,69.60
2018-07-26T22:59:02.340Z,69.40
2018-07-26T23:01:30.710Z,69.60
2018-07-26T23:03:59.167Z,69.80
2018-07-26T23:06:27.669Z,71.40
2018-07-26T23:08:56.066Z,71.40
2018-07-26T23:11:24.570Z,72.10
2018-07-26T23:13:52.919Z,71.80
2018-07-26T23:16:21.323Z,71.90
2018-07-26T23:18:49.713Z,71.90
2018-07-26T23:21:18.080Z,72.00
2018-07-26T23:23:46.534Z,72.70
2018-07-26T23:26:15.050Z,73.50
2018-07-26T23:28:43.456Z,72.70
2018-07-26T23:31:11.837Z,73.00
2018-07-26T23:33:40.233Z,72.90
2018-07-26T23:36:08.599Z,73.10
2018-07-26T23:38:36.944Z,73.20
2018-07-26T23:41:05.392Z,73.50
2018-07-26T23:43:33.758Z,73.70
2018-07-26T23:46:02.234Z,73.90
2018-07-26T23:48:30.755Z,74.40
2018-07-26T23:50:59.163Z,74.80
2018-07-26T23:53:27.559Z,74.70
2018-07-26T23:55:55.910Z,75.60
2018-07-26T23:58:24.474Z,75.70
